Latest Coastal Weather Observations for Broome

IDW60701

Issued at 5:22 am WST Friday 3 July 2015 (issued every 10 minutes, with the page automatically refreshed every 10 minutes)

About coastal observations | Map of coastal stations | Coastal observations for WA | Marine services | Other Formats
Station Details ID: 003003 Name: BROOME AIRPORT Lat: -17.95 Lon: 122.24 Height: 7.42 m
Data from the previous 72 hours. | See also: Recent months at Broome
Date/Time
WST
Temp

°C
Wind Pressure Rain
since 9am
mm
Weather Cloud Vis
km
Sea
Height
m
Swell
Dir
 
Speed
knots
Gust
knots
hPa Trend Height
m
Period
s
Dir
03/05:00am 17.7 E 4 6 1017.0 - 0.0 - - 10 - - - -
03/04:30am 20.0 SE 5 7 1016.9 - 0.0 - - 10 - - - -
03/04:00am 20.3 SE 4 6 1016.9 - 0.0 - - 10 - - - -
03/03:30am 18.3 SE 4 4 1017.1 - 0.0 - - 10 - - - -
03/03:00am 20.6 SE 3 5 1016.9 - 0.0 - - 10 - - - -
03/02:30am 20.6 SE 4 6 1017.3 - 0.0 - - 10 - - - -
03/02:00am 20.7 ESE 5 6 1017.6 - 0.0 - - 10 - - - -
03/01:30am 21.7 ESE 6 7 1017.9 - 0.0 - - 10 - - - -
03/01:00am 22.0 ESE 6 8 1018.0 - 0.0 - - 10 - - - -
03/12:30am 22.5 ESE 6 8 1018.1 - 0.0 - - 10 - - - -
03/12:00am 23.8 ESE 9 11 1018.1 - 0.0 - - 10 - - - -
 
Date/Time
WST
Temp

°C
Wind Pressure Rain
since 9am
mm
Weather Cloud Vis
km
Sea
Height
m
Swell
Dir
 
Speed
knots
Gust
knots
hPa Trend Height
m
Period
s
Dir
02/11:30pm 24.5 SE 8 11 1018.2 - 0.0 - - 10 - - - -
02/11:00pm 24.3 SE 7 9 1018.3 - 0.0 - - 10 - - - -
02/10:30pm 24.5 SSE 6 7 1018.3 - 0.0 - - 10 - - - -
02/10:00pm 24.1 S 5 6 1018.4 - 0.0 - - 10 - - - -
02/09:30pm 23.1 WSW 5 6 1018.3 - 0.0 - - 10 - - - -
02/09:00pm 23.3 W 6 8 1018.1 - 0.0 - - 10 - - - -
02/08:30pm 23.7 W 5 6 1018.2 - 0.0 - Partly cloudy 10 - - - -
02/08:00pm 23.5 NW 6 7 1018.0 - 0.0 - Partly cloudy 10 - - - -
02/07:30pm 24.7 W 7 8 1017.6 - 0.0 - Cloudy 10 - - - -
02/07:00pm 25.5 NNW 4 5 1017.2 - 0.0 - Cloudy 10 - - - -
02/06:30pm 26.3 SSW 5 7 1016.7 - 0.0 - Cloudy 10 - - - -
02/06:00pm 26.3 SW 5 7 1016.3 - 0.0 - Cloudy 10 - - - -
02/05:30pm 27.1 W 7 10 1016.2 - 0.0 - Cloudy 10 - - - -
02/05:00pm 28.7 S 6 8 1015.9 - 0.0 - Cloudy 10 - - - -
02/04:30pm 30.1 SSE 6 9 1015.7 - 0.0 - Cloudy 10 - - - -
02/04:00pm 30.0 S 6 9 1015.6 - 0.0 - Cloudy 10 - - - -
02/03:30pm 30.6 SSE 7 11 1015.4 - 0.0 - Cloudy 10 - - - -
02/03:00pm 31.2 SSE 7 10 1015.4 - 0.0 - Partly cloudy 10 - - - -
02/02:30pm 31.1 ESE 6 11 1015.6 - 0.0 - Partly cloudy 10 - - - -
02/02:00pm 31.4 ESE 7 11 1015.9 - 0.0 - Partly cloudy 10 - - - -
02/01:30pm 31.7 ESE 8 14 1016.3 - 0.0 - Partly cloudy 10 - - - -
02/01:00pm 31.4 E 11 17 1016.6 - 0.0 - - 10 - - - -
02/12:30pm 31.2 ENE 9 15 1017.1 - 0.0 - - 10 - - - -
02/12:00pm 30.8 E 12 16 1017.6 F 0.0 Fine Mostly clear 40 - - - -
02/11:30am 30.1 ENE 13 17 1018.1 - 0.0 - - 10 - - - -
02/11:00am 29.4 E 11 19 1018.6 - 0.0 - - 10 - - - -
02/10:30am 27.6 SE 7 11 1019.2 - 0.0 - - 10 - - - -
02/10:18am 27.0 SE 7 10 1019.3 - 0.0 - - 10 - - - -
02/10:00am 25.3 SE 6 8 1019.7 - 0.0 - - 10 - - - -
02/09:30am 23.2 ESE 8 11 1020.1 - 0.0 - - 10 - - - -
02/09:00am 22.3 ESE 7 11 1020.2 F 0.0 Fine Mostly clear 40 - - - -
02/08:30am 22.2 ESE 6 8 1020.2 - 0.0 - - 10 - - - -
02/08:00am 20.5 ESE 5 7 1020.0 - 0.0 - - 10 - - - -
02/07:30am 19.2 ESE 6 7 1019.9 - 0.0 - - 10 - - - -
02/07:00am 17.5 ESE 5 6 1019.7 - 0.0 - - 10 - - - -
02/06:30am 16.5 ESE 5 7 1019.5 - 0.0 - - 10 - - - -
02/06:00am 14.8 E 4 5 1019.2 F 0.0 Fine Mostly clear 40 - - - -
02/05:30am 14.8 ESE 4 5 1019.0 - 0.0 - - 10 - - - -
02/05:00am 16.0 ESE 5 6 1018.8 - 0.0 - - 10 - - - -
02/04:30am 18.1 SE 6 7 1018.8 - 0.0 - - 10 - - - -
02/04:00am 18.0 ESE 5 7 1018.8 - 0.0 - - 10 - - - -
02/03:30am 18.6 SE 6 8 1018.5 - 0.0 - - 10 - - - -
02/03:00am 16.4 E 7 9 1018.5 - 0.0 - - 10 - - - -
02/02:30am 15.1 E 4 5 1018.5 - 0.0 - - 10 - - - -
02/02:00am 14.3 ENE 5 7 1018.6 - 0.0 - - 10 - - - -
02/01:30am 15.4 E 4 6 1018.8 - 0.0 - - 10 - - - -
02/01:00am 14.8 ESE 4 8 1019.0 - 0.0 - - 10 - - - -
02/12:30am 14.3 ENE 3 4 1019.2 - 0.0 - - 10 - - - -
02/12:00am 15.8 CALM 0 0 1019.0 - 0.0 - - 10 - - - -
 
Date/Time
WST
Temp

°C
Wind Pressure Rain
since 9am
mm
Weather Cloud Vis
km
Sea
Height
m
Swell
Dir
 
Speed
knots
Gust
knots
hPa Trend Height
m
Period
s
Dir
01/11:30pm 15.8 CALM 0 0 1019.2 - 0.0 - - 10 - - - -
01/11:00pm 16.2 CALM 0 0 1019.4 - 0.0 - - 10 - - - -
01/10:30pm 16.9 CALM 0 1 1019.4 - 0.0 - - 10 - - - -
01/10:00pm 18.0 SW 1 5 1019.6 - 0.0 - - 10 - - - -
01/09:30pm 19.0 CALM 0 0 1019.5 - 0.0 - - 10 - - - -
01/09:00pm 20.8 W 4 5 1019.4 - 0.0 - - 10 - - - -
01/08:30pm 22.0 W 4 6 1019.2 - 0.0 - - 10 - - - -
01/08:00pm 22.2 W 5 6 1018.9 - 0.0 - - 10 - - - -
01/07:30pm 22.7 WNW 5 6 1018.7 - 0.0 - - 10 - - - -
01/07:00pm 24.9 S 7 9 1018.1 - 0.0 - - 10 - - - -
01/06:30pm 24.4 S 7 9 1017.6 - 0.0 - - 10 - - - -
01/06:00pm 24.7 S 8 11 1017.1 - 0.0 - - 10 - - - -
01/05:30pm 25.9 S 6 9 1016.8 - 0.0 - - 10 - - - -
01/05:00pm 27.3 S 6 9 1016.6 - 0.0 - - 10 - - - -
01/04:30pm 29.0 SE 5 12 1016.5 - 0.0 - - 10 - - - -
01/04:00pm 31.0 E 8 12 1016.3 - 0.0 - - 10 - - - -
01/03:30pm 31.1 ESE 7 8 1016.1 - 0.0 - - 10 - - - -
01/03:00pm 31.5 NE 10 14 1016.1 - 0.0 - - 10 - - - -
01/02:30pm 31.8 NE 5 8 1016.3 - 0.0 - - 10 - - - -
01/02:00pm 31.6 ESE 7 10 1016.5 - 0.0 - - 10 - - - -
01/01:30pm 30.8 E 7 12 1016.8 - 0.0 - - 10 - - - -
01/01:00pm 31.4 NE 8 12 1017.2 - 0.0 - - 10 - - - -
01/12:30pm 31.3 ENE 10 17 1017.8 - 0.0 - - 10 - - - -
01/12:00pm 30.6 E 11 15 1018.2 F 0.0 Fine Clear 40 - - - -
01/11:30am 29.1 SE 8 12 1018.8 - 0.0 - - 10 - - - -
01/11:00am 28.7 SE 9 12 1019.4 - 0.0 - - 10 - - - -
01/10:30am 27.2 SE 7 10 1019.7 - 0.0 - - 10 - - - -
01/10:00am 26.8 E 8 13 1020.1 - 0.0 - - 10 - - - -
01/09:30am 25.4 E 8 11 1020.5 - 0.0 - - 10 - - - -
01/09:00am 24.3 E 6 8 1020.5 F 0.0 Fine Clear 40 - - - -
01/08:30am 20.9 E 4 6 1020.5 - 0.0 - - 10 - - - -
01/08:00am 18.2 E 4 6 1020.4 - 0.0 - - 10 - - - -
01/07:30am 17.3 ESE 4 5 1020.3 - 0.0 - - 10 - - - -
01/07:00am 14.1 ESE 4 5 1020.1 - 0.0 - - 10 - - - -
01/06:30am 13.1 ESE 4 7 1019.9 - 0.0 - - 10 - - - -
01/06:00am 12.2 E 6 7 1019.4 S 0.0 Fine Clear 40 - - - -
01/05:30am 14.2 ESE 5 6 1019.1 - 0.0 - - 10 - - - -
01/05:00am 13.5 ESE 4 5 1019.0 - 0.0 - - 10 - - - -
01/04:30am 13.4 CALM 0 6 1018.9 - 0.0 - - 10 - - - -
01/04:00am 13.3 CALM 0 0 1018.8 - 0.0 - - 10 - - - -
01/03:30am 12.3 CALM 0 0 1018.8 - 0.0 - - 10 - - - -
01/03:00am 12.3 CALM 0 0 1018.6 - 0.0 - - 10 - - - -
01/02:30am 12.0 CALM 0 0 1018.7 - 0.0 - - 10 - - - -
01/02:00am 12.2 CALM 0 0 1018.8 - 0.0 - - 10 - - - -
01/01:30am 12.7 CALM 0 0 1018.9 - 0.0 - - 10 - - - -
01/01:00am 13.3 CALM 0 0 1019.1 - 0.0 - - 10 - - - -
01/12:30am 13.4 CALM 0 0 1019.2 - 0.0 - - 10 - - - -
01/12:00am 13.9 CALM 0 0 1019.0 - 0.0 - - 10 - - - -
 
Date/Time
WST
Temp

°C
Wind Pressure Rain
since 9am
mm
Weather Cloud Vis
km
Sea
Height
m
Swell
Dir
 
Speed
knots
Gust
knots
hPa Trend Height
m
Period
s
Dir
30/11:30pm 16.1 CALM 0 0 1019.1 - 0.0 - - 10 - - - -
30/11:00pm 16.0 CALM 0 0 1019.2 - 0.0 - - 10 - - - -
30/10:30pm 16.4 NE 3 4 1019.4 - 0.0 - - 10 - - - -
30/10:00pm 19.6 ESE 3 4 1019.4 - 0.0 - - 10 - - - -
30/09:30pm 22.4 S 5 8 1019.4 - 0.0 - - 10 - - - -
30/09:00pm 22.6 S 6 8 1019.1 R 0.0 Fine Clear 40 - - - -
30/08:30pm 23.1 S 9 11 1019.1 - 0.0 - - 10 - - - -
30/08:00pm 23.5 S 9 12 1018.9 - 0.0 - - 10 - - - -
30/07:30pm 23.2 SSW 9 12 1018.5 - 0.0 - - 10 - - - -
30/07:00pm 23.5 SSW 4 11 1018.2 - 0.0 - - 10 - - - -
30/06:30pm 23.5 SSW 4 6 1017.8 - 0.0 - - 10 - - - -
30/06:00pm 24.6 SW 5 6 1017.2 R 0.0 Fine Clear 40 - - - -
30/05:30pm 26.0 SW 4 6 1016.9 - 0.0 - - 10 - - - -
30/05:00pm 29.0 CALM 0 2 1016.7 - 0.0 - - 10 - - - -
30/04:30pm 28.9 S 4 7 1016.3 - 0.0 - - 10 - - - -
30/04:00pm 29.6 S 5 6 1016.1 - 0.0 - - 10 - - - -
30/03:30pm 29.4 SSE 7 10 1016.0 - 0.0 - - 10 - - - -
30/03:00pm 30.7 ESE 5 8 1015.9 F 0.0 Fine Clear 40 - - - -
30/02:30pm 31.2 NE 7 13 1016.1 - 0.0 - - 10 - - - -
30/02:00pm 31.4 ENE 7 13 1016.3 - 0.0 - - 10 - - - -
30/01:30pm 31.9 NE 7 12 1016.6 - 0.0 - - 10 - - - -
30/01:00pm 30.7 ENE 8 13 1017.1 - 0.0 - - 10 - - - -
30/12:30pm 31.3 NE 11 14 1017.5 - 0.0 - - 10 - - - -
30/12:00pm 29.9 E 10 17 1018.1 F 0.0 Fine Clear 40 - - - -
30/11:30am 30.1 ENE 11 18 1018.7 - 0.0 - - 10 - - - -
30/11:00am 29.0 E 10 17 1019.2 - 0.0 - - 10 - - - -
30/10:30am 28.2 E 11 17 1019.7 - 0.0 - - 10 - - - -
30/10:00am 24.9 ESE 7 9 1020.1 - 0.0 - - 10 - - - -
30/09:30am 22.3 SE 7 10 1020.4 - 0.0 - - 10 - - - -
30/09:00am 21.1 ESE 8 10 1020.3 R 0.0 Fine Clear 40 - - - -
30/08:30am 20.3 E 7 9 1020.3 - 0.0 - - 10 - - - -
30/08:00am 18.3 ESE 7 11 1020.3 - 0.0 - - 10 - - - -
30/07:30am 16.9 E 7 11 1020.0 - 0.0 - - 10 - - - -
30/07:00am 16.7 E 7 9 1019.4 - 0.0 - - 10 - - - -
30/06:30am 15.3 ESE 7 8 1019.0 - 0.0 - - 10 - - - -
30/06:00am 15.4 ESE 7 9 1018.8 R 0.0 Fine Clear 40 - - - -
30/05:30am 15.4 ESE 8 9 1018.5 - 0.0 - - 10 - - - -

Other Formats:

Comma delimited format used in spreadsheet applications
http://www.bom.gov.au/fwo/IDW60701/IDW60701.94203.axf

JavaScript Object Notation format (JSON) in row-major order
http://www.bom.gov.au/fwo/IDW60701/IDW60701.94203.json